ACT        NSW        VIC        QLD        SA        WA        TAS        NT        INFO        CALC            by VK5ZD

Past Date/Time: (dd/mm/yyyy hh:mm or blank for current data)    

  Atmospheric Gas Attenuation - ITU Rec 676-11   --------------- dB/100km ---------------
NT Stations Date Time Temp RH % AH g/m3 Dew Point Wind Direction Speed kph Gust kph Barometer mB Rainfall Since 9am 24GHz 47GHz 76GHz 122GHz 134GHz 241GHz
Alice Springs Airport 08/05 11:00 15 38 4.87 0.8 35 48 1026.5 0 11.6 20.5 26.0 67.3 52.4 177.0
Batchelor 08/05 11:00 27.1 46 11.9 14.5 22 32 1013.2 0 25.8 27.1 45.5 119.8 121.7 421.7
Borroloola 08/05 11:00 28.1 36 9.84 12 20 30 1014.9 0 21.5 23.9 37.6 98.9 96.1 332.3
Bradshaw 08/05 11:00 27.1 37 9.58 11.2 17 26 1015.5 0 21.0 23.8 37.2 97.7 94.4 326.1
Bradshaw-Angallari Valley (Defence) 08/05 11:00 25.6 38 9.05 10.2 17 30 1015.7 0 20.0 23.5 36.0 94.6 90.1 310.7
Bradshaw-Koolendong Valley 08/05 11:00 26.2 36 8.86 10 11 26 1017.1 0 19.5 23.1 35.2 92.3 87.3 301.3
Bulman 08/05 11:00 28.5 54 15.09 18.3 17 26 1013.5 0 32.4 31.7 57.0 150.6 160.0 555.5
Cape Wessel 08/05 11:00 31.2 69 22.33 24.8 33 41 1010.9 0 47.3 43.1 86.0 227.9 255.6 888.9
Central Arnhem Plateau 08/05 11:00 26.2 46 11.32 13.7 24 37 1012.5 0 24.7 26.5 43.8 115.3 115.9 401.3
Centre Island 08/05 11:00 28 46 12.51 15.3 32 41 1014.1 0 27.0 27.8 47.3 124.7 127.9 443.5
Channel Point 08/05 09:00 22 57 11.06 13.3 28 1013.6 0 24.4 27.4 45.2 118.9 119.0 411.7
Charles Point 08/05 11:00 28.1 45 12.31 15.1 15 26 1012.7 0 26.6 27.4 46.4 122.4 125.1 433.8
Croker Island Airport 08/05 11:00 30.2 49 15.02 18.6 15 24 1011.8 0 32.1 30.9 55.5 146.5 155.4 539.8
Curtin Springs 08/05 09:00 11.7 51 5.33 2.1 15 1028 0 12.7 21.9 28.7 74.7 60.1 203.9
Daly Waters 08/05 11:00 24.1 41 8.97 10 17 30 1016.2 0 19.9 23.7 36.4 95.6 90.9 313.4
Darwin Airport 08/05 11:00 28.2 49 13.47 16.5 20 26 1013 0 29.0 29.2 50.8 134.0 139.5 483.9
Delamere 08/05 11:00 36.3 49 20.73 23.9 20 28 1014.6 0 43.4 38.0 73.9 195.6 217.2 755.9
Douglas River 08/05 11:00 27.2 44 11.45 13.9 22 33 1014.2 0 24.9 26.5 43.8 115.3 116.2 402.3
Dum In Mirrie 08/05 11:00 28.5 44 12.3 15.1 11 24 1012.6 0 26.6 27.3 46.2 121.6 124.4 431.2
East Point 08/05 11:00 28.1 50 13.67 16.7 11 20 1012.8 0 29.5 29.5 51.6 136.2 142.2 493.4
Gove Airport 08/05 11:00 28.9 67 19.14 22.2 33 46 1011.5 0 40.9 38.4 73.9 195.4 215.2 747.9
Groote Eylandt Airport 08/05 11:00 28.4 63 17.51 20.7 15 24 1012.6 0 37.5 35.8 67.2 177.7 193.2 671.4
Gunn Point 08/05 11:00 28.4 49 13.62 16.7 13 26 1012.6 0 29.3 29.3 51.2 135.2 141.0 489.2
Jabiru 08/05 11:00 30.6 41 12.85 16.2 17 30 1011.9 0 27.6 27.4 46.9 123.8 127.6 442.8
Jervois 08/05 11:00 17.2 40 5.86 3.5 22 33 1025.6 0 13.6 21.3 28.6 74.5 62.1 211.3
Kangaroo Flats (Defence) 08/05 11:00 27.8 46 12.37 15.1 9 22 1013.1 0 26.8 27.6 46.8 123.5 126.4 438.2
Knuckey Lagoon 08/05 11:00 28.5 45 12.58 15.4 17 24 1012.6 0 27.2 27.7 47.2 124.4 127.8 443.2
Lajamanu 08/05 11:00 21.9 38 7.33 7 32 46 1018.7 0 16.5 22.0 31.7 82.9 74.4 255.4
Maningrida Airport 08/05 11:00 29.6 56 16.62 19.9 22 39 1011.5 0 35.5 33.7 62.4 164.8 177.8 617.9
Mcarthur River Mine 08/05 11:00 27.5 34 9 10.2 20 32 1015.3 0 19.8 22.9 35.0 91.9 87.4 301.5
Middle Point 08/05 11:00 28.8 48 13.64 16.7 17 24 1013 0 29.3 29.3 51.1 134.7 140.6 487.8
Milingimbi 08/05 11:00 31 58 18.57 22 17 30 1011.4 0 39.5 36.5 69.4 183.6 201.3 699.7
Mount Bundey North (Defence) 08/05 11:00 27.9 45 12.17 14.9 15 24 1013.1 0 26.3 27.3 46.0 121.3 123.8 429.0
Mount Bundey South (Defence) 08/05 11:00 28.3 41 11.34 13.8 9 20 1014.6 0 24.6 26.0 42.8 112.7 113.3 392.4
Murganella Airstrip 08/05 11:00 30.1 49 14.94 18.2 15 32 1011.5 0 32.0 30.8 55.2 145.8 154.5 536.8
Ngayawili (Elcho Island) 08/05 11:00 30 67 20.32 23.4 19 37 1011.3 0 43.2 40.0 78.1 206.7 229.3 797.2
Ngukurr Aws 08/05 11:00 28.7 40 11.3 13.8 15 30 1014.4 0 24.5 25.8 42.5 111.8 112.2 388.7
Noonamah 08/05 11:00 28.1 44 12.03 14.7 17 26 1012.7 0 26.0 27.0 45.4 119.6 121.7 421.8
Oenpelli Airport 08/05 11:00 32.4 36 12.42 15.8 19 30 1011.8 0 26.6 26.3 44.4 117.0 119.7 415.5
Pirlangimpi 08/05 11:00 28.6 53 14.9 18.1 15 22 1012.3 0 32.0 31.3 56.1 148.2 157.1 545.6
Point Fawcett 08/05 11:00 29.1 54 15.6 19.1 17 26 1012.6 0 33.4 32.3 58.6 154.8 165.4 574.4
Point Stuart 08/05 11:00 28.2 52 14.3 17.4 20 32 1011.6 0 30.8 30.4 54.0 142.5 150.0 520.6
Rabbit Flat 08/05 11:00 21.7 39 7.44 7.2 28 50 1021.2 0 16.8 22.3 32.3 84.4 76.0 261.0
Tennant Creek 08/05 11:00 20.8 40 7.24 6.7 41 54 1019.7 0 16.4 22.2 31.9 83.3 74.5 255.5
Territory Grape Farm 08/05 11:00 17 42 6.08 4 30 39 1023.9 0 14.1 21.6 29.4 76.6 64.7 220.4
The Granites Airport 08/05 11:00 19.7 40 6.79 5.7 17 22 1013.1 0 15.5 21.6 30.5 79.7 69.9 239.4
Tindal 08/05 11:00 26.3 41 10.15 12 28 33 1014.4 0 22.2 24.8 39.6 104.0 101.9 352.3
Victoria River Downs 08/05 11:00 25.2 38 8.85 9.9 15 22 1016.6 0 19.6 23.3 35.6 93.3 88.3 304.4
Wadeye (Port Keats) 08/05 11:00 26.8 39 9.93 11.7 24 37 1013.9 0 21.7 24.3 38.5 101.2 98.7 341.0
Walungurru (Kintore) 08/05 11:00 18.2 41 6.37 4.7 24 48 1024 0 14.7 21.7 30.0 78.1 67.0 228.9
Warruwi 08/05 11:00 30 52 15.77 19.1 19 28 1011.9 0 33.7 32.2 58.6 154.8 165.6 575.4
Yulara 08/05 11:00 15.3 40 5.22 1.8 32 43 1027.7 0 12.4 20.9 27.1 70.4 56.2 190.5

Last Refresh: 08-May-2026 11:02:55

Bureau of Meteorology